sensor_id;sensor_type;location;lat;lon;timestamp;pressure;altitude;pressure_sealevel;temperature;humidity
9239;BME280;4654;43.242;27.976;2022-07-17T00:01:15;99451.16;;;24.03;59.47
9239;BME280;4654;43.242;27.976;2022-07-17T00:03:42;99438.06;;;24.02;59.47
9239;BME280;4654;43.242;27.976;2022-07-17T00:06:10;99431.56;;;24.02;58.80
9239;BME280;4654;43.242;27.976;2022-07-17T00:08:37;99440.00;;;24.01;57.43
9239;BME280;4654;43.242;27.976;2022-07-17T00:11:04;99438.03;;;23.98;57.41
9239;BME280;4654;43.242;27.976;2022-07-17T00:13:31;99439.91;;;23.98;57.78
9239;BME280;4654;43.242;27.976;2022-07-17T00:15:58;99439.06;;;23.94;56.90
9239;BME280;4654;43.242;27.976;2022-07-17T00:18:25;99437.19;;;23.94;57.52
9239;BME280;4654;43.242;27.976;2022-07-17T00:20:52;99441.00;;;23.93;56.38
9239;BME280;4654;43.242;27.976;2022-07-17T00:23:20;99436.38;;;23.94;56.42
9239;BME280;4654;43.242;27.976;2022-07-17T00:25:47;99441.03;;;23.97;56.45
9239;BME280;4654;43.242;27.976;2022-07-17T00:28:14;99443.72;;;23.97;55.36
9239;BME280;4654;43.242;27.976;2022-07-17T00:30:40;99442.31;;;23.84;61.69
9239;BME280;4654;43.242;27.976;2022-07-17T00:33:07;99438.25;;;23.74;62.94
9239;BME280;4654;43.242;27.976;2022-07-17T00:35:34;99435.22;;;23.76;63.85
9239;BME280;4654;43.242;27.976;2022-07-17T00:38:01;99425.69;;;23.78;61.37
9239;BME280;4654;43.242;27.976;2022-07-17T00:40:30;99421.88;;;23.79;62.12
9239;BME280;4654;43.242;27.976;2022-07-17T00:42:56;99425.50;;;23.87;61.15
9239;BME280;4654;43.242;27.976;2022-07-17T00:45:23;99425.59;;;23.90;61.87
9239;BME280;4654;43.242;27.976;2022-07-17T00:47:54;99433.94;;;23.85;61.66
9239;BME280;4654;43.242;27.976;2022-07-17T00:50:23;99424.38;;;23.88;60.58
9239;BME280;4654;43.242;27.976;2022-07-17T00:52:50;99426.44;;;23.94;60.63
9239;BME280;4654;43.242;27.976;2022-07-17T00:55:17;99412.94;;;23.91;61.36
9239;BME280;4654;43.242;27.976;2022-07-17T00:57:47;99426.16;;;23.99;63.68
9239;BME280;4654;43.242;27.976;2022-07-17T01:00:15;99424.88;;;23.93;64.02
9239;BME280;4654;43.242;27.976;2022-07-17T01:02:45;99392.19;;;23.72;63.66
9239;BME280;4654;43.242;27.976;2022-07-17T01:05:13;99433.78;;;23.97;62.95
9239;BME280;4654;43.242;27.976;2022-07-17T01:07:40;99427.56;;;23.93;62.07
9239;BME280;4654;43.242;27.976;2022-07-17T01:10:08;99423.03;;;23.97;62.18
9239;BME280;4654;43.242;27.976;2022-07-17T01:12:35;99421.53;;;24.00;62.34
9239;BME280;4654;43.242;27.976;2022-07-17T01:15:05;99420.34;;;23.97;60.72
9239;BME280;4654;43.242;27.976;2022-07-17T01:17:32;99415.75;;;23.98;59.82
9239;BME280;4654;43.242;27.976;2022-07-17T01:20:01;99418.81;;;23.96;59.50
9239;BME280;4654;43.242;27.976;2022-07-17T01:22:29;99406.09;;;23.93;59.53
9239;BME280;4654;43.242;27.976;2022-07-17T01:24:58;99413.00;;;23.94;59.38
9239;BME280;4654;43.242;27.976;2022-07-17T01:27:25;99418.38;;;23.94;59.60
9239;BME280;4654;43.242;27.976;2022-07-17T01:29:52;99411.09;;;23.95;59.65
9239;BME280;4654;43.242;27.976;2022-07-17T01:32:19;99410.03;;;23.99;59.69
9239;BME280;4654;43.242;27.976;2022-07-17T01:34:46;99417.66;;;23.97;59.45
9239;BME280;4654;43.242;27.976;2022-07-17T01:37:13;99411.47;;;23.93;59.84
9239;BME280;4654;43.242;27.976;2022-07-17T01:39:41;99423.66;;;23.91;60.16
9239;BME280;4654;43.242;27.976;2022-07-17T01:42:20;99417.88;;;23.89;59.67
9239;BME280;4654;43.242;27.976;2022-07-17T01:44:47;99425.16;;;23.88;59.54
9239;BME280;4654;43.242;27.976;2022-07-17T01:47:14;99422.41;;;23.85;59.93
9239;BME280;4654;43.242;27.976;2022-07-17T01:49:45;99406.81;;;23.75;59.73
9239;BME280;4654;43.242;27.976;2022-07-17T01:52:13;99425.34;;;23.80;59.78
9239;BME280;4654;43.242;27.976;2022-07-17T01:54:41;99428.97;;;23.87;60.10
9239;BME280;4654;43.242;27.976;2022-07-17T01:57:09;99400.19;;;23.69;59.96
9239;BME280;4654;43.242;27.976;2022-07-17T01:59:37;99403.22;;;23.67;60.31
9239;BME280;4654;43.242;27.976;2022-07-17T02:02:06;99423.41;;;23.80;60.08
9239;BME280;4654;43.242;27.976;2022-07-17T02:04:34;99421.88;;;23.79;60.20
9239;BME280;4654;43.242;27.976;2022-07-17T02:07:02;99411.78;;;23.73;60.11
9239;BME280;4654;43.242;27.976;2022-07-17T02:09:30;99418.41;;;23.79;60.23
9239;BME280;4654;43.242;27.976;2022-07-17T02:11:58;99424.25;;;23.81;59.98
9239;BME280;4654;43.242;27.976;2022-07-17T02:14:25;99406.25;;;23.66;59.73
9239;BME280;4654;43.242;27.976;2022-07-17T02:16:52;99428.19;;;23.87;59.58
9239;BME280;4654;43.242;27.976;2022-07-17T02:19:19;99424.53;;;23.79;59.48
9239;BME280;4654;43.242;27.976;2022-07-17T02:21:46;99431.94;;;23.82;60.13
9239;BME280;4654;43.242;27.976;2022-07-17T02:24:13;99432.53;;;23.76;59.20
9239;BME280;4654;43.242;27.976;2022-07-17T02:26:41;99436.41;;;23.78;59.96
9239;BME280;4654;43.242;27.976;2022-07-17T02:29:09;99434.84;;;23.77;60.16
9239;BME280;4654;43.242;27.976;2022-07-17T02:31:36;99438.63;;;23.73;59.89
9239;BME280;4654;43.242;27.976;2022-07-17T02:34:03;99442.34;;;23.68;60.09
9239;BME280;4654;43.242;27.976;2022-07-17T02:36:30;99438.53;;;23.69;60.52
9239;BME280;4654;43.242;27.976;2022-07-17T02:38:57;99411.16;;;23.45;60.48
9239;BME280;4654;43.242;27.976;2022-07-17T02:41:24;99441.44;;;23.61;60.39
9239;BME280;4654;43.242;27.976;2022-07-17T02:43:51;99447.84;;;23.56;60.67
9239;BME280;4654;43.242;27.976;2022-07-17T02:46:19;99438.84;;;23.49;61.03
9239;BME280;4654;43.242;27.976;2022-07-17T02:48:46;99449.84;;;23.44;61.50
9239;BME280;4654;43.242;27.976;2022-07-17T02:51:13;99459.75;;;23.40;61.63
9239;BME280;4654;43.242;27.976;2022-07-17T02:53:40;99460.06;;;23.38;61.35
9239;BME280;4654;43.242;27.976;2022-07-17T02:56:07;99464.69;;;23.38;61.67
9239;BME280;4654;43.242;27.976;2022-07-17T02:58:34;99454.88;;;23.45;61.75
9239;BME280;4654;43.242;27.976;2022-07-17T03:01:01;99463.59;;;23.58;61.21
9239;BME280;4654;43.242;27.976;2022-07-17T03:03:29;99469.69;;;23.74;61.11
9239;BME280;4654;43.242;27.976;2022-07-17T03:05:56;99467.44;;;23.91;60.73
9239;BME280;4654;43.242;27.976;2022-07-17T03:08:23;99468.56;;;24.09;59.92
9239;BME280;4654;43.242;27.976;2022-07-17T03:10:50;99468.97;;;24.30;59.21
9239;BME280;4654;43.242;27.976;2022-07-17T03:13:17;99469.41;;;24.51;59.17
9239;BME280;4654;43.242;27.976;2022-07-17T03:15:43;99462.72;;;24.86;58.30
9239;BME280;4654;43.242;27.976;2022-07-17T03:18:10;99462.84;;;25.16;56.88
9239;BME280;4654;43.242;27.976;2022-07-17T03:20:39;99449.28;;;25.31;56.45
9239;BME280;4654;43.242;27.976;2022-07-17T03:23:05;99465.03;;;25.84;55.66
9239;BME280;4654;43.242;27.976;2022-07-17T03:25:32;99462.44;;;26.24;54.67
9239;BME280;4654;43.242;27.976;2022-07-17T03:27:59;99455.16;;;26.61;53.48
9239;BME280;4654;43.242;27.976;2022-07-17T03:30:26;99464.84;;;27.09;52.59
9239;BME280;4654;43.242;27.976;2022-07-17T03:32:53;99460.44;;;27.34;51.87
9239;BME280;4654;43.242;27.976;2022-07-17T03:35:20;99465.38;;;27.25;51.37
9239;BME280;4654;43.242;27.976;2022-07-17T03:37:48;99465.13;;;27.44;51.39
9239;BME280;4654;43.242;27.976;2022-07-17T03:40:15;99475.38;;;27.78;50.53
9239;BME280;4654;43.242;27.976;2022-07-17T03:42:42;99472.09;;;28.23;50.03
9239;BME280;4654;43.242;27.976;2022-07-17T03:45:09;99464.88;;;28.69;48.73
9239;BME280;4654;43.242;27.976;2022-07-17T03:47:36;99471.91;;;29.15;47.99
9239;BME280;4654;43.242;27.976;2022-07-17T03:50:04;99468.00;;;29.41;47.32
9239;BME280;4654;43.242;27.976;2022-07-17T03:52:31;99474.09;;;29.94;46.42
9239;BME280;4654;43.242;27.976;2022-07-17T03:54:59;99468.94;;;30.27;45.57
9239;BME280;4654;43.242;27.976;2022-07-17T03:57:26;99472.63;;;30.68;44.94
9239;BME280;4654;43.242;27.976;2022-07-17T03:59:53;99476.06;;;31.26;43.90
9239;BME280;4654;43.242;27.976;2022-07-17T04:02:20;99470.91;;;31.76;43.20
9239;BME280;4654;43.242;27.976;2022-07-17T04:04:47;99483.81;;;32.35;42.26
9239;BME280;4654;43.242;27.976;2022-07-17T04:07:14;99479.81;;;32.96;41.15
9239;BME280;4654;43.242;27.976;2022-07-17T04:09:54;99484.16;;;33.39;40.53
9239;BME280;4654;43.242;27.976;2022-07-17T04:12:23;99490.25;;;33.89;39.60
9239;BME280;4654;43.242;27.976;2022-07-17T04:14:50;99490.56;;;34.49;38.78
9239;BME280;4654;43.242;27.976;2022-07-17T04:17:17;99490.13;;;35.02;38.03
9239;BME280;4654;43.242;27.976;2022-07-17T04:19:44;99493.59;;;35.66;37.75
9239;BME280;4654;43.242;27.976;2022-07-17T04:22:11;99489.75;;;36.33;36.21
9239;BME280;4654;43.242;27.976;2022-07-17T04:24:38;99506.25;;;37.08;35.89
9239;BME280;4654;43.242;27.976;2022-07-17T04:27:05;99498.53;;;37.96;34.48
9239;BME280;4654;43.242;27.976;2022-07-17T04:29:34;99503.13;;;38.51;33.62
9239;BME280;4654;43.242;27.976;2022-07-17T04:32:01;99509.69;;;38.74;33.15
9239;BME280;4654;43.242;27.976;2022-07-17T04:34:28;99514.31;;;39.71;32.53
9239;BME280;4654;43.242;27.976;2022-07-17T04:36:55;99511.47;;;40.42;31.72
9239;BME280;4654;43.242;27.976;2022-07-17T04:39:22;99509.63;;;41.13;31.21
9239;BME280;4654;43.242;27.976;2022-07-17T04:41:49;99519.84;;;41.45;30.01
9239;BME280;4654;43.242;27.976;2022-07-17T04:44:16;99517.88;;;41.84;29.18
9239;BME280;4654;43.242;27.976;2022-07-17T04:46:45;99512.94;;;42.31;29.55
9239;BME280;4654;43.242;27.976;2022-07-17T04:49:12;99523.94;;;41.73;28.89
9239;BME280;4654;43.242;27.976;2022-07-17T04:51:39;99516.78;;;41.20;29.37
9239;BME280;4654;43.242;27.976;2022-07-17T04:54:06;99506.97;;;41.66;28.50
9239;BME280;4654;43.242;27.976;2022-07-17T04:56:33;99527.81;;;42.04;28.22
9239;BME280;4654;43.242;27.976;2022-07-17T04:59:00;99527.16;;;43.02;27.91
9239;BME280;4654;43.242;27.976;2022-07-17T05:01:27;99520.38;;;43.82;27.30
9239;BME280;4654;43.242;27.976;2022-07-17T05:03:56;99527.50;;;44.71;26.08
9239;BME280;4654;43.242;27.976;2022-07-17T05:06:23;99535.09;;;45.65;25.58
9239;BME280;4654;43.242;27.976;2022-07-17T05:08:50;99528.94;;;46.25;25.00
9239;BME280;4654;43.242;27.976;2022-07-17T05:11:16;99527.38;;;46.13;24.77
9239;BME280;4654;43.242;27.976;2022-07-17T05:13:43;99533.72;;;46.52;24.31
9239;BME280;4654;43.242;27.976;2022-07-17T05:16:10;99530.94;;;46.24;24.15
9239;BME280;4654;43.242;27.976;2022-07-17T05:18:37;99529.94;;;46.66;24.11
9239;BME280;4654;43.242;27.976;2022-07-17T05:21:06;99536.97;;;47.10;24.27
9239;BME280;4654;43.242;27.976;2022-07-17T05:23:33;99531.09;;;47.19;24.15
9239;BME280;4654;43.242;27.976;2022-07-17T05:26:00;99535.22;;;47.70;23.36
9239;BME280;4654;43.242;27.976;2022-07-17T05:28:26;99535.28;;;48.64;23.04
9239;BME280;4654;43.242;27.976;2022-07-17T05:30:53;99532.75;;;49.13;22.91
9239;BME280;4654;43.242;27.976;2022-07-17T05:33:20;99533.66;;;49.45;22.10
9239;BME280;4654;43.242;27.976;2022-07-17T05:35:47;99526.00;;;50.01;22.22
9239;BME280;4654;43.242;27.976;2022-07-17T05:38:15;99525.16;;;50.06;21.43
9239;BME280;4654;43.242;27.976;2022-07-17T05:40:42;99524.88;;;50.10;21.71
9239;BME280;4654;43.242;27.976;2022-07-17T05:43:09;99535.84;;;50.39;21.55
9239;BME280;4654;43.242;27.976;2022-07-17T05:45:36;99523.13;;;50.07;21.46
9239;BME280;4654;43.242;27.976;2022-07-17T05:48:05;99530.78;;;50.06;21.18
9239;BME280;4654;43.242;27.976;2022-07-17T05:50:32;99523.75;;;50.31;21.51
9239;BME280;4654;43.242;27.976;2022-07-17T05:52:59;99526.88;;;50.72;21.09
9239;BME280;4654;43.242;27.976;2022-07-17T05:55:27;99527.31;;;50.76;21.06
9239;BME280;4654;43.242;27.976;2022-07-17T05:57:54;99523.91;;;50.52;21.01
9239;BME280;4654;43.242;27.976;2022-07-17T06:00:21;99523.34;;;50.09;20.37
9239;BME280;4654;43.242;27.976;2022-07-17T06:02:48;99515.78;;;49.30;20.85
9239;BME280;4654;43.242;27.976;2022-07-17T06:05:16;99526.69;;;49.89;20.82
9239;BME280;4654;43.242;27.976;2022-07-17T06:07:43;99525.34;;;50.27;20.34
9239;BME280;4654;43.242;27.976;2022-07-17T06:10:09;99538.63;;;50.96;20.11
9239;BME280;4654;43.242;27.976;2022-07-17T06:12:38;99530.13;;;51.02;19.80
9239;BME280;4654;43.242;27.976;2022-07-17T06:15:05;99524.31;;;51.59;19.93
9239;BME280;4654;43.242;27.976;2022-07-17T06:17:33;99526.88;;;51.83;20.13
9239;BME280;4654;43.242;27.976;2022-07-17T06:20:00;99529.84;;;51.98;19.78
9239;BME280;4654;43.242;27.976;2022-07-17T06:22:27;99523.69;;;52.61;19.40
9239;BME280;4654;43.242;27.976;2022-07-17T06:24:54;99525.59;;;52.94;19.46
9239;BME280;4654;43.242;27.976;2022-07-17T06:27:21;99538.69;;;52.63;19.15
9239;BME280;4654;43.242;27.976;2022-07-17T06:29:49;99530.34;;;53.06;19.02
9239;BME280;4654;43.242;27.976;2022-07-17T06:32:16;99524.38;;;52.54;19.23
9239;BME280;4654;43.242;27.976;2022-07-17T06:34:43;99540.38;;;52.38;19.06
9239;BME280;4654;43.242;27.976;2022-07-17T06:37:10;99537.13;;;52.83;18.89
9239;BME280;4654;43.242;27.976;2022-07-17T06:39:37;99534.38;;;53.18;19.06
9239;BME280;4654;43.242;27.976;2022-07-17T06:42:04;99536.75;;;53.07;18.61
9239;BME280;4654;43.242;27.976;2022-07-17T06:44:31;99540.81;;;53.34;18.41
9239;BME280;4654;43.242;27.976;2022-07-17T06:47:00;99520.91;;;52.40;18.89
9239;BME280;4654;43.242;27.976;2022-07-17T06:49:27;99535.13;;;50.64;19.38
9239;BME280;4654;43.242;27.976;2022-07-17T06:51:54;99536.03;;;50.98;19.27
9239;BME280;4654;43.242;27.976;2022-07-17T06:54:21;99543.53;;;47.75;19.99
9239;BME280;4654;43.242;27.976;2022-07-17T06:56:51;99545.56;;;42.85;22.90
9239;BME280;4654;43.242;27.976;2022-07-17T06:59:18;99546.16;;;41.79;25.07
9239;BME280;4654;43.242;27.976;2022-07-17T07:01:45;99532.97;;;42.26;23.29
9239;BME280;4654;43.242;27.976;2022-07-17T07:04:13;99536.69;;;40.59;24.39
9239;BME280;4654;43.242;27.976;2022-07-17T07:06:40;99560.00;;;37.43;26.83
9239;BME280;4654;43.242;27.976;2022-07-17T07:09:07;99548.13;;;36.18;28.59
9239;BME280;4654;43.242;27.976;2022-07-17T07:11:34;99560.06;;;35.19;29.29
9239;BME280;4654;43.242;27.976;2022-07-17T07:14:02;99560.56;;;34.24;30.61
9239;BME280;4654;43.242;27.976;2022-07-17T07:16:29;99564.63;;;33.51;30.51
9239;BME280;4654;43.242;27.976;2022-07-17T07:18:56;99561.59;;;33.45;30.70
9239;BME280;4654;43.242;27.976;2022-07-17T07:21:25;99571.97;;;32.74;31.45
9239;BME280;4654;43.242;27.976;2022-07-17T07:23:52;99563.97;;;32.60;31.44
9239;BME280;4654;43.242;27.976;2022-07-17T07:26:19;99567.94;;;32.22;31.89
9239;BME280;4654;43.242;27.976;2022-07-17T07:28:46;99561.28;;;32.27;32.04
9239;BME280;4654;43.242;27.976;2022-07-17T07:31:13;99541.06;;;31.51;31.56
9239;BME280;4654;43.242;27.976;2022-07-17T07:33:42;99569.13;;;31.37;32.18
9239;BME280;4654;43.242;27.976;2022-07-17T07:36:09;99563.00;;;32.10;32.48
9239;BME280;4654;43.242;27.976;2022-07-17T07:38:38;99568.16;;;32.02;31.55
9239;BME280;4654;43.242;27.976;2022-07-17T07:41:05;99566.81;;;31.80;32.18
9239;BME280;4654;43.242;27.976;2022-07-17T07:43:31;99564.78;;;31.91;32.51
9239;BME280;4654;43.242;27.976;2022-07-17T07:45:58;99563.00;;;31.77;31.90
9239;BME280;4654;43.242;27.976;2022-07-17T07:48:25;99570.16;;;31.54;32.52
9239;BME280;4654;43.242;27.976;2022-07-17T07:50:52;99572.16;;;31.90;32.89
9239;BME280;4654;43.242;27.976;2022-07-17T07:53:19;99572.88;;;32.64;31.45
9239;BME280;4654;43.242;27.976;2022-07-17T07:55:47;99571.59;;;32.76;30.68
9239;BME280;4654;43.242;27.976;2022-07-17T07:58:14;99578.91;;;32.82;31.31
9239;BME280;4654;43.242;27.976;2022-07-17T08:00:43;99580.78;;;32.55;32.16
9239;BME280;4654;43.242;27.976;2022-07-17T08:03:10;99575.09;;;32.76;30.89
9239;BME280;4654;43.242;27.976;2022-07-17T08:05:37;99576.38;;;32.65;30.76
9239;BME280;4654;43.242;27.976;2022-07-17T08:08:05;99576.94;;;32.19;31.58
9239;BME280;4654;43.242;27.976;2022-07-17T08:10:32;99584.88;;;32.70;30.97
9239;BME280;4654;43.242;27.976;2022-07-17T08:13:00;99586.66;;;33.10;30.35
9239;BME280;4654;43.242;27.976;2022-07-17T08:15:27;99587.50;;;33.57;31.07
9239;BME280;4654;43.242;27.976;2022-07-17T08:17:54;99583.97;;;33.82;30.57
9239;BME280;4654;43.242;27.976;2022-07-17T08:20:21;99589.69;;;33.88;30.30
9239;BME280;4654;43.242;27.976;2022-07-17T08:22:50;99585.97;;;33.78;29.90
9239;BME280;4654;43.242;27.976;2022-07-17T08:25:17;99592.97;;;33.57;29.13
9239;BME280;4654;43.242;27.976;2022-07-17T08:27:44;99590.94;;;33.61;29.14
9239;BME280;4654;43.242;27.976;2022-07-17T08:30:14;99596.00;;;33.36;30.27
9239;BME280;4654;43.242;27.976;2022-07-17T08:32:41;99607.38;;;32.74;30.97
9239;BME280;4654;43.242;27.976;2022-07-17T08:35:09;99604.31;;;32.39;31.75
9239;BME280;4654;43.242;27.976;2022-07-17T08:37:43;99604.66;;;32.04;31.50
9239;BME280;4654;43.242;27.976;2022-07-17T08:40:18;99610.28;;;31.39;32.68
9239;BME280;4654;43.242;27.976;2022-07-17T08:42:45;99600.41;;;31.05;33.16
9239;BME280;4654;43.242;27.976;2022-07-17T08:45:14;99608.56;;;31.59;32.87
9239;BME280;4654;43.242;27.976;2022-07-17T08:47:41;99612.41;;;31.69;32.34
9239;BME280;4654;43.242;27.976;2022-07-17T08:50:08;99608.31;;;31.40;32.89
9239;BME280;4654;43.242;27.976;2022-07-17T08:52:37;99620.66;;;30.90;34.05
9239;BME280;4654;43.242;27.976;2022-07-17T08:55:07;99609.44;;;31.46;32.99
9239;BME280;4654;43.242;27.976;2022-07-17T08:57:37;99609.50;;;31.90;32.39
9239;BME280;4654;43.242;27.976;2022-07-17T09:00:07;99607.28;;;32.14;33.18
9239;BME280;4654;43.242;27.976;2022-07-17T09:02:37;99600.69;;;32.49;31.64
9239;BME280;4654;43.242;27.976;2022-07-17T09:05:06;99613.22;;;32.76;30.80
9239;BME280;4654;43.242;27.976;2022-07-17T09:07:33;99610.44;;;32.80;30.84
9239;BME280;4654;43.242;27.976;2022-07-17T09:10:00;99614.44;;;32.38;31.25
9239;BME280;4654;43.242;27.976;2022-07-17T09:12:28;99604.97;;;32.16;31.40
9239;BME280;4654;43.242;27.976;2022-07-17T09:14:56;99609.75;;;32.39;32.22
9239;BME280;4654;43.242;27.976;2022-07-17T09:17:23;99603.63;;;32.31;31.31
9239;BME280;4654;43.242;27.976;2022-07-17T09:19:53;99604.50;;;32.21;30.75
9239;BME280;4654;43.242;27.976;2022-07-17T09:22:22;99609.94;;;32.25;32.37
9239;BME280;4654;43.242;27.976;2022-07-17T09:24:51;99611.19;;;32.17;32.32
9239;BME280;4654;43.242;27.976;2022-07-17T09:27:29;99616.06;;;32.32;31.38
9239;BME280;4654;43.242;27.976;2022-07-17T09:29:59;99618.13;;;32.55;31.93
9239;BME280;4654;43.242;27.976;2022-07-17T09:32:28;99619.94;;;32.68;31.51
9239;BME280;4654;43.242;27.976;2022-07-17T09:34:59;99612.16;;;31.93;31.92
9239;BME280;4654;43.242;27.976;2022-07-17T09:37:28;99612.03;;;31.67;32.60
9239;BME280;4654;43.242;27.976;2022-07-17T09:39:56;99612.38;;;31.72;32.61
9239;BME280;4654;43.242;27.976;2022-07-17T09:42:25;99615.31;;;31.88;32.35
9239;BME280;4654;43.242;27.976;2022-07-17T09:44:59;99619.63;;;31.86;31.23
9239;BME280;4654;43.242;27.976;2022-07-17T09:47:28;99611.03;;;31.91;32.53
9239;BME280;4654;43.242;27.976;2022-07-17T09:49:57;99617.81;;;32.09;32.71
9239;BME280;4654;43.242;27.976;2022-07-17T09:52:27;99608.31;;;32.31;32.35
9239;BME280;4654;43.242;27.976;2022-07-17T09:54:56;99611.56;;;32.49;32.58
9239;BME280;4654;43.242;27.976;2022-07-17T09:57:25;99599.47;;;32.53;31.79
9239;BME280;4654;43.242;27.976;2022-07-17T09:59:53;99619.31;;;32.54;32.43
9239;BME280;4654;43.242;27.976;2022-07-17T10:02:21;99620.00;;;32.61;32.89
9239;BME280;4654;43.242;27.976;2022-07-17T10:04:51;99619.97;;;31.91;32.15
9239;BME280;4654;43.242;27.976;2022-07-17T10:07:20;99621.41;;;31.55;32.71
9239;BME280;4654;43.242;27.976;2022-07-17T10:09:47;99621.34;;;31.01;32.30
9239;BME280;4654;43.242;27.976;2022-07-17T10:12:14;99623.63;;;31.20;34.36
9239;BME280;4654;43.242;27.976;2022-07-17T10:14:43;99620.09;;;31.23;32.94
9239;BME280;4654;43.242;27.976;2022-07-17T10:17:14;99613.72;;;30.78;32.73
9239;BME280;4654;43.242;27.976;2022-07-17T10:19:47;99620.00;;;30.58;34.42
9239;BME280;4654;43.242;27.976;2022-07-17T10:22:14;99627.47;;;30.33;34.19
9239;BME280;4654;43.242;27.976;2022-07-17T10:24:47;99617.31;;;30.51;34.48
9239;BME280;4654;43.242;27.976;2022-07-17T10:27:20;99619.63;;;30.49;34.48
9239;BME280;4654;43.242;27.976;2022-07-17T10:29:58;99627.88;;;30.07;34.16
9239;BME280;4654;43.242;27.976;2022-07-17T10:32:25;99620.50;;;30.22;34.85
9239;BME280;4654;43.242;27.976;2022-07-17T10:34:56;99607.66;;;30.39;35.13
9239;BME280;4654;43.242;27.976;2022-07-17T10:37:25;99608.38;;;30.61;35.04
9239;BME280;4654;43.242;27.976;2022-07-17T10:39:54;99609.03;;;30.82;35.27
9239;BME280;4654;43.242;27.976;2022-07-17T10:42:45;99616.34;;;30.99;34.45
9239;BME280;4654;43.242;27.976;2022-07-17T10:45:13;99606.59;;;31.09;33.30
9239;BME280;4654;43.242;27.976;2022-07-17T10:47:48;99598.00;;;31.21;33.56
9239;BME280;4654;43.242;27.976;2022-07-17T10:50:17;99594.16;;;31.15;34.37
9239;BME280;4654;43.242;27.976;2022-07-17T10:52:44;99611.50;;;31.31;33.48
9239;BME280;4654;43.242;27.976;2022-07-17T10:55:19;99612.50;;;30.90;32.67
9239;BME280;4654;43.242;27.976;2022-07-17T10:57:47;99613.84;;;30.47;32.99
9239;BME280;4654;43.242;27.976;2022-07-17T11:00:15;99612.00;;;30.13;33.77
9239;BME280;4654;43.242;27.976;2022-07-17T11:02:42;99616.28;;;30.03;33.83
9239;BME280;4654;43.242;27.976;2022-07-17T11:05:10;99607.69;;;30.29;35.14
9239;BME280;4654;43.242;27.976;2022-07-17T11:07:51;99606.44;;;30.61;34.27
9239;BME280;4654;43.242;27.976;2022-07-17T11:10:21;99589.38;;;30.54;33.37
9239;BME280;4654;43.242;27.976;2022-07-17T11:12:48;99601.03;;;30.40;33.76
9239;BME280;4654;43.242;27.976;2022-07-17T11:15:17;99610.47;;;30.12;34.13
9239;BME280;4654;43.242;27.976;2022-07-17T11:17:45;99593.78;;;30.06;34.13
9239;BME280;4654;43.242;27.976;2022-07-17T11:20:13;99619.00;;;30.07;33.96
9239;BME280;4654;43.242;27.976;2022-07-17T11:22:40;99609.66;;;30.18;34.71
9239;BME280;4654;43.242;27.976;2022-07-17T11:25:08;99611.97;;;30.16;34.43
9239;BME280;4654;43.242;27.976;2022-07-17T11:27:38;99615.03;;;30.39;34.86
9239;BME280;4654;43.242;27.976;2022-07-17T11:30:12;99613.81;;;30.57;33.31
9239;BME280;4654;43.242;27.976;2022-07-17T11:32:41;99626.19;;;30.69;41.14
9239;BME280;4654;43.242;27.976;2022-07-17T11:35:18;99635.63;;;30.23;47.53
9239;BME280;4654;43.242;27.976;2022-07-17T11:37:48;99643.78;;;29.70;50.47
9239;BME280;4654;43.242;27.976;2022-07-17T11:40:15;99656.94;;;29.61;51.09
9239;BME280;4654;43.242;27.976;2022-07-17T11:42:44;99651.78;;;29.00;52.54
9239;BME280;4654;43.242;27.976;2022-07-17T11:45:11;99648.94;;;28.73;53.28
9239;BME280;4654;43.242;27.976;2022-07-17T11:47:38;99656.56;;;28.53;54.52
9239;BME280;4654;43.242;27.976;2022-07-17T11:50:08;99637.44;;;28.22;52.07
9239;BME280;4654;43.242;27.976;2022-07-17T11:52:44;99642.69;;;27.97;53.68
9239;BME280;4654;43.242;27.976;2022-07-17T11:55:12;99639.53;;;27.92;52.63
9239;BME280;4654;43.242;27.976;2022-07-17T11:57:46;99627.50;;;27.82;52.06
9239;BME280;4654;43.242;27.976;2022-07-17T12:00:15;99622.88;;;27.83;52.99
9239;BME280;4654;43.242;27.976;2022-07-17T12:02:43;99627.63;;;28.00;50.68
9239;BME280;4654;43.242;27.976;2022-07-17T12:05:11;99630.72;;;27.98;51.53
9239;BME280;4654;43.242;27.976;2022-07-17T12:07:42;99624.56;;;28.05;52.19
9239;BME280;4654;43.242;27.976;2022-07-17T12:10:14;99630.41;;;28.10;49.66
9239;BME280;4654;43.242;27.976;2022-07-17T12:12:56;99634.66;;;28.08;52.48
9239;BME280;4654;43.242;27.976;2022-07-17T12:15:35;99641.00;;;27.82;50.78
9239;BME280;4654;43.242;27.976;2022-07-17T12:18:03;99629.47;;;27.42;49.47
9239;BME280;4654;43.242;27.976;2022-07-17T12:20:45;99631.69;;;27.76;50.94
9239;BME280;4654;43.242;27.976;2022-07-17T12:23:26;99633.69;;;27.83;49.83
9239;BME280;4654;43.242;27.976;2022-07-17T12:26:03;99629.81;;;27.80;49.58
9239;BME280;4654;43.242;27.976;2022-07-17T12:28:31;99630.88;;;27.69;51.55
9239;BME280;4654;43.242;27.976;2022-07-17T12:30:58;99603.97;;;27.39;48.74
9239;BME280;4654;43.242;27.976;2022-07-17T12:33:25;99638.97;;;27.69;50.91
9239;BME280;4654;43.242;27.976;2022-07-17T12:35:52;99638.41;;;27.49;52.15
9239;BME280;4654;43.242;27.976;2022-07-17T12:38:19;99632.16;;;27.42;53.93
9239;BME280;4654;43.242;27.976;2022-07-17T12:40:46;99636.19;;;27.62;52.73
9239;BME280;4654;43.242;27.976;2022-07-17T12:43:13;99648.59;;;27.66;51.69
9239;BME280;4654;43.242;27.976;2022-07-17T12:45:41;99638.25;;;27.35;52.14
9239;BME280;4654;43.242;27.976;2022-07-17T12:48:08;99650.72;;;27.47;52.13
9239;BME280;4654;43.242;27.976;2022-07-17T12:50:35;99656.16;;;27.50;53.24
9239;BME280;4654;43.242;27.976;2022-07-17T12:53:02;99654.47;;;27.35;54.43
9239;BME280;4654;43.242;27.976;2022-07-17T12:55:28;99646.69;;;27.27;56.13
9239;BME280;4654;43.242;27.976;2022-07-17T12:57:55;99650.59;;;27.33;56.59
9239;BME280;4654;43.242;27.976;2022-07-17T13:00:22;99658.22;;;27.24;55.56
9239;BME280;4654;43.242;27.976;2022-07-17T13:02:51;99643.88;;;27.20;55.37
9239;BME280;4654;43.242;27.976;2022-07-17T13:05:18;99640.50;;;27.26;55.53
9239;BME280;4654;43.242;27.976;2022-07-17T13:07:45;99636.94;;;27.19;53.68
9239;BME280;4654;43.242;27.976;2022-07-17T13:10:11;99637.06;;;26.97;56.03
9239;BME280;4654;43.242;27.976;2022-07-17T13:12:38;99636.75;;;27.02;57.39
9239;BME280;4654;43.242;27.976;2022-07-17T13:15:06;99622.56;;;27.08;55.86